Relevés horaires Matro (Suisse)


Relevés horaires à Matro - Lundi 13 Oct. 2014
Heure UTC1 Température [°C] Vent [km/h] Hum. [%] Pres.4 [hPa] Visi. [Km] Nébu. [octa] Préc.5 [mm] Cond.
2m. Res. Ros. Dir.2 Vit. Moy. Raf.3
23:00 2.7 -2.5 2.4 NO 25.9 29.6 44.4 98 850(1.6/3h) -- -- -- --
22:00 4.5 1.2 3.0 S 14.8 38.9 66.7 90 850(1.1/3h) -- -- -- --
21:00 4.6 0.1 4.6 SE 24.1 31.5 55.6 100 850(-0.1/3h) -- -- -- --
20:00 4.7 -0.3 4.7 SE 29.6 31.5 51.9 100 850(-0.7/3h) -- -- -- --
19:00 4.9 1.7 4.9 SE 14.8 24.1 35.2 100 850(-0.6/3h) -- -- -- --
18:00 5.1 -0.1 4.6 SSE 33.3 35.2 44.4 97 850(-0.4/3h) -- -- -- --
17:00 5.2 0.3 5.0 SSE 29.6 35.2 42.6 99 850(-0.9/3h) -- -- -- --
16:00 5.1 0.1 5.1 SE 31.5 33.3 40.7 100 850(-1.6/3h) -- -- -- --
15:00 5.0 1.5 5.0 E 16.7 31.5 42.6 100 850(-0.9/3h) -- -- -- --
14:00 4.2 0.5 3.3 NO 16.7 20.4 25.9 94 850(-0.1/3h) -- -- -- --
13:00 4.6 3.4 2.7 NNO 5.6 31.5 42.6 87 850(0.8/3h) -- -- -- --
12:00 4.5 -0.7 3.6 OSO 31.5 61.1 87.0 94 850(-0.5/3h) -- -- -- --
11:00 6.4 0.4 6.4 SE 53.7 53.7 83.3 100 850(-1.2/3h) -- -- -- --
10:00 7.0 0.9 6.7 SSE 61.1 61.1 87.0 98 850(-0.9/3h) -- -- -- --
09:00 7.1 1.6 7.0 SSE 48.2 55.6 81.5 99 850(-0.2/3h) -- -- -- --
08:00 6.7 2.5 5.8 S 27.8 35.2 51.9 94 850(-0.1/3h) -- -- -- --
07:00 7.1 1.9 6.7 S 42.6 48.2 70.4 97 850(-0.6/3h) -- -- -- --
06:00 7.1 1.9 6.9 SSE 42.6 42.6 63.0 99 850(-0.5/3h) -- -- -- --
05:00 5.8 0.8 4.7 S 33.3 33.3 46.3 93 850(-0.3/3h) -- -- -- --
04:00 6.6 1.9 5.2 SSE 33.3 35.2 53.7 91 850(-0.9/3h) -- -- -- --
03:00 6.8 3.7 6.2 ESE 16.7 40.7 57.4 96 850(-1.1/3h) -- -- -- --
02:00 6.6 2.5 6.4 S 25.9 27.8 55.6 99 850(-1.3/3h) -- -- -- --
01:00 6.9 2.9 6.9 ESE 25.9 33.3 57.4 100 850(-1.4/3h) -- -- -- --
00:00 7.3 3.7 7.3 S 22.2 48.2 64.8 100 850(-1.5/3h) -- -- -- --

1 Coordinated Universal Time. Actuellement il est 22:00 locale et 20:00 UTC.

2 Le vent souffle depuis la direction indiquée vers la direction oposée.

3 Les rafales max. sont disponible 40 min après l'heure du relevé.

4 Pour les stations d'altitude (plus de 600m) le géopotentiel du niveau le plus proche de la pression obligatoire est indiqué.

5 Les stations disposant d'un diffuseur peuvent indiquer "trace". Cela signifie que des précipitations ont touchés le sol mais que la quantité est inférieure à 0.1 mm.

Copyright

Les données affichées sur cette page sont la propriété exclusive de Météo Suisse.

Récapitulatif de la journée
Température [°C] Vent [km/h] Ensoleillement4 [h] Precipitations totale5 [mm] Pression [Hpa]
Min1 Max.2 Moy.3 Max. Min Max.
5.4 7.3 38.3 87.0 0 h 0 min 0 850.0 850.0

1 Température minimale relevée entre 18:00 UTC la veille et 18:00 UTC le jour donné.

2 Température maximale relevée entre 06:00 UTC le jour donné et 06:00 UTC le lendemain.

3 Vent moyen de la journée basé sur les relevés horaires.

4 Ensoleillement en heures relevé entre 06:00 UTC la veille et 06:00 UTC le jour donné.

5 Précipitations totales tombées entre 06:00 UTC la jour donné et 06:00 UTC le lendemain.

Graphiques horaires